Time;durP1;ratioP1;P1;durP2;ratioP2;P2;SDS_P1;SDS_P2;PMS_P1;PMS_P2;Temp;Humidity;BMP_temperature;BMP_pressure;BME280_temperature;BME280_humidity;BME280_pressure;Samples;Min_cycle;Max_cycle;Signal;HPM_P1;HPM_P2
2022/10/12 00:01:48;;;;;;;44.63;27.97;;;;;;;14.23;100.00;95262.97;5123988;27;20235;-79
2022/10/12 00:04:15;;;;;;;39.03;27.83;;;;;;;14.21;100.00;95260.59;5124759;27;20204;-79
2022/10/12 00:06:42;;;;;;;41.23;26.67;;;;;;;14.17;100.00;95259.44;5124272;27;20200;-77
2022/10/12 00:09:09;;;;;;;39.87;27.23;;;;;;;14.15;100.00;95258.88;5121370;27;20203;-79
2022/10/12 00:11:36;;;;;;;41.90;26.57;;;;;;;13.97;100.00;95261.56;5126074;27;20658;-80
2022/10/12 00:14:03;;;;;;;40.73;26.57;;;;;;;13.54;100.00;95250.50;5122370;27;20609;-80
2022/10/12 00:16:30;;;;;;;49.17;27.63;;;;;;;13.37;100.00;95255.56;5130233;27;20199;-78
2022/10/12 00:18:59;;;;;;;45.00;27.77;;;;;;;13.26;100.00;95245.06;5129536;27;20207;-79
2022/10/12 00:21:28;;;;;;;46.03;29.20;;;;;;;13.30;100.00;95249.63;5124619;27;20237;-80
2022/10/12 00:23:57;;;;;;;48.10;28.57;;;;;;;13.38;100.00;95240.69;5123980;27;20211;-80
2022/10/12 00:26:25;;;;;;;43.13;27.60;;;;;;;13.52;100.00;95240.31;5129611;27;20616;-80
2022/10/12 00:28:56;;;;;;;43.23;27.50;;;;;;;13.65;100.00;95247.94;5125065;27;20203;-80
2022/10/12 00:31:24;;;;;;;44.00;27.90;;;;;;;13.73;100.00;95248.66;5127099;27;20741;-81
2022/10/12 00:33:51;;;;;;;45.47;27.83;;;;;;;13.77;100.00;95247.97;5127554;27;20306;-83
2022/10/12 00:36:21;;;;;;;49.77;27.93;;;;;;;13.84;100.00;95242.66;5123069;27;20211;-79
2022/10/12 00:38:49;;;;;;;47.43;27.67;;;;;;;13.88;100.00;95247.22;5125982;27;20210;-79
2022/10/12 00:41:18;;;;;;;42.73;27.83;;;;;;;13.90;100.00;95241.78;5127557;27;20222;-79
2022/10/12 00:43:47;;;;;;;43.30;27.43;;;;;;;13.94;100.00;95235.88;5118938;27;20206;-80
2022/10/12 00:46:19;;;;;;;40.83;25.67;;;;;;;14.02;100.00;95242.63;5123233;27;20203;-80
2022/10/12 00:48:49;;;;;;;42.63;27.77;;;;;;;14.05;100.00;95236.94;5121814;27;20710;-81
2022/10/12 00:51:19;;;;;;;42.33;26.70;;;;;;;13.99;100.00;95241.25;5120556;27;20195;-82
2022/10/12 00:53:52;;;;;;;42.33;26.77;;;;;;;14.02;100.00;95237.38;5119795;27;20678;-82
2022/10/12 00:56:24;;;;;;;43.20;28.13;;;;;;;14.05;100.00;95245.56;5120903;27;20204;-83
2022/10/12 00:58:53;;;;;;;45.03;27.30;;;;;;;14.05;100.00;95235.09;5118024;27;20207;-82
2022/10/12 01:01:21;;;;;;;42.90;28.20;;;;;;;14.05;100.00;95239.56;5125884;27;20899;-82
2022/10/12 01:03:49;;;;;;;43.90;27.97;;;;;;;14.00;100.00;95242.81;5125727;27;20203;-83
2022/10/12 01:06:16;;;;;;;43.23;27.90;;;;;;;14.00;100.00;95239.41;5119173;27;20204;-83
2022/10/12 01:08:43;;;;;;;43.07;28.07;;;;;;;14.00;100.00;95236.78;5120717;27;20206;-83
2022/10/12 01:11:12;;;;;;;41.97;26.80;;;;;;;14.00;100.00;95240.22;5122676;27;20204;-83
2022/10/12 01:13:38;;;;;;;43.17;26.87;;;;;;;14.04;100.00;95245.78;5121471;27;20196;-83
2022/10/12 01:16:12;;;;;;;45.27;28.03;;;;;;;14.06;100.00;95246.34;5120560;27;20570;-83
2022/10/12 01:18:45;;;;;;;41.80;26.33;;;;;;;14.03;100.00;95242.38;5124569;27;20208;-81
2022/10/12 01:21:18;;;;;;;42.07;27.03;;;;;;;14.04;100.00;95246.59;5117975;27;20203;-83
2022/10/12 01:24:13;;;;;;;39.23;26.43;;;;;;;14.03;100.00;95238.97;5124051;27;20665;-82
2022/10/12 01:27:03;;;;;;;41.40;26.73;;;;;;;14.00;100.00;95244.63;5119430;27;20841;-83
2022/10/12 01:30:09;;;;;;;43.83;27.17;;;;;;;14.08;100.00;95239.88;5116270;27;20557;-80
2022/10/12 01:32:48;;;;;;;43.23;26.70;;;;;;;14.06;100.00;95239.31;5121869;27;20566;-78
2022/10/12 01:35:22;;;;;;;43.83;28.80;;;;;;;13.67;100.00;95244.31;5125627;27;20202;-78
2022/10/12 01:37:57;;;;;;;46.70;28.77;;;;;;;13.34;100.00;95231.69;5126349;27;20558;-78
2022/10/12 01:40:30;;;;;;;46.67;28.40;;;;;;;13.18;100.00;95230.50;5128192;27;20285;-78
2022/10/12 01:42:57;;;;;;;47.33;29.47;;;;;;;13.18;100.00;95238.31;5124531;27;20223;-78
2022/10/12 01:45:26;;;;;;;47.20;30.73;;;;;;;13.31;100.00;95242.56;5120547;27;20658;-78
2022/10/12 01:47:54;;;;;;;45.97;29.53;;;;;;;13.42;100.00;95242.63;5123665;27;20235;-78
2022/10/12 01:50:27;;;;;;;51.40;31.23;;;;;;;13.47;100.00;95239.38;5124194;27;20217;-78
2022/10/12 01:53:01;;;;;;;52.07;30.77;;;;;;;13.54;100.00;95235.66;5126849;27;20205;-78
2022/10/12 01:55:38;;;;;;;49.97;29.87;;;;;;;13.64;100.00;95253.41;5128087;27;20248;-77
2022/10/12 01:58:33;;;;;;;48.60;30.87;;;;;;;13.72;100.00;95241.84;5124840;27;20248;-78
2022/10/12 02:01:10;;;;;;;50.33;30.13;;;;;;;13.74;100.00;95248.44;5124234;27;20200;-78
2022/10/12 02:03:44;;;;;;;47.93;29.83;;;;;;;13.77;100.00;95240.16;5124714;27;20712;-78
2022/10/12 02:06:15;;;;;;;49.67;30.43;;;;;;;13.80;100.00;95244.94;5126043;27;20202;-81
2022/10/12 02:08:49;;;;;;;54.70;30.20;;;;;;;13.85;100.00;95249.50;5121839;27;20688;-81
2022/10/12 02:11:18;;;;;;;52.10;30.07;;;;;;;13.89;100.00;95253.25;5123768;27;20313;-77
2022/10/12 02:13:48;;;;;;;47.37;30.30;;;;;;;13.92;100.00;95250.19;5119195;27;20207;-81
2022/10/12 02:16:19;;;;;;;47.70;29.30;;;;;;;13.94;100.00;95258.63;5118700;27;20202;-79
2022/10/12 02:18:50;;;;;;;48.23;31.07;;;;;;;13.90;100.00;95253.03;5123974;27;20202;-79
2022/10/12 02:21:21;;;;;;;53.87;32.27;;;;;;;13.83;100.00;95259.34;5125475;27;20292;-80
2022/10/12 02:23:50;;;;;;;54.57;32.40;;;;;;;13.70;100.00;95259.56;5121914;28;20207;-81
2022/10/12 02:26:19;;;;;;;52.13;31.87;;;;;;;13.46;100.00;95262.06;5120943;27;21172;-81
2022/10/12 02:28:48;;;;;;;53.10;32.13;;;;;;;13.49;100.00;95266.06;5126161;28;20271;-81
2022/10/12 02:31:26;;;;;;;49.20;30.97;;;;;;;13.46;100.00;95261.28;5124745;27;20195;-81
2022/10/12 02:34:00;;;;;;;51.57;31.17;;;;;;;13.49;100.00;95259.03;5120844;28;20287;-82
2022/10/12 02:36:34;;;;;;;53.03;32.33;;;;;;;13.50;100.00;95265.03;5122757;28;20199;-82
2022/10/12 02:39:05;;;;;;;54.10;31.37;;;;;;;13.58;100.00;95268.16;5121381;28;20252;-84
2022/10/12 02:41:39;;;;;;;51.97;30.03;;;;;;;13.62;100.00;95266.66;5125622;27;20195;-81
2022/10/12 02:44:10;;;;;;;52.27;31.53;;;;;;;13.62;100.00;95266.66;5119152;28;20226;-82
2022/10/12 02:46:39;;;;;;;48.43;29.93;;;;;;;13.72;100.00;95262.72;5123624;27;20199;-82
2022/10/12 02:49:08;;;;;;;48.93;30.73;;;;;;;13.43;100.00;95253.88;5120346;27;20227;-76
2022/10/12 02:51:37;;;;;;;44.87;29.33;;;;;;;13.22;100.00;95260.34;5124875;27;20206;-76
2022/10/12 02:54:03;;;;;;;53.10;31.23;;;;;;;12.92;100.00;95246.44;5119525;27;20200;-77
2022/10/12 02:56:30;;;;;;;55.20;32.43;;;;;;;12.96;100.00;95265.84;5120903;28;20804;-77
2022/10/12 02:58:57;;;;;;;52.40;31.27;;;;;;;13.04;100.00;95265.56;5123946;27;20210;-77
2022/10/12 03:01:24;;;;;;;57.27;32.23;;;;;;;13.10;100.00;95264.72;5120874;27;20829;-76
2022/10/12 03:03:52;;;;;;;55.80;32.90;;;;;;;13.22;100.00;95262.97;5125464;27;20253;-77
2022/10/12 03:06:20;;;;;;;52.47;34.07;;;;;;;13.36;100.00;95258.41;5129848;27;20860;-77
2022/10/12 03:08:47;;;;;;;60.13;34.10;;;;;;;13.41;100.00;95261.13;5127266;27;20226;-73
2022/10/12 03:11:14;;;;;;;55.83;33.30;;;;;;;13.41;100.00;95253.31;5127743;27;20285;-72
2022/10/12 03:13:40;;;;;;;56.97;34.30;;;;;;;13.53;100.00;95254.94;5128589;27;20191;-74
2022/10/12 03:16:09;;;;;;;56.17;34.30;;;;;;;13.57;100.00;95256.09;5126865;27;20199;-74
2022/10/12 03:18:37;;;;;;;60.57;35.10;;;;;;;13.62;100.00;95252.84;5123041;27;20206;-74
2022/10/12 03:21:05;;;;;;;51.00;32.00;;;;;;;13.72;100.00;95257.50;5130384;27;20191;-72
2022/10/12 03:23:32;;;;;;;54.87;32.93;;;;;;;13.71;100.00;95246.25;5126938;27;20227;-73
2022/10/12 03:25:59;;;;;;;54.80;32.37;;;;;;;13.70;100.00;95247.28;5127851;27;20638;-74
2022/10/12 03:28:26;;;;;;;52.63;32.50;;;;;;;13.73;100.00;95256.50;5128457;27;20203;-74
2022/10/12 03:30:53;;;;;;;53.60;32.80;;;;;;;13.62;100.00;95237.16;5130332;27;20214;-74
2022/10/12 03:33:20;;;;;;;58.70;34.97;;;;;;;13.80;100.00;95258.00;5130657;27;20204;-73
2022/10/12 03:35:47;;;;;;;56.30;34.40;;;;;;;13.80;100.00;95263.22;5130093;27;20208;-73
2022/10/12 03:38:17;;;;;;;63.23;33.83;;;;;;;13.72;100.00;95258.31;5126535;27;20326;-75
2022/10/12 03:40:44;;;;;;;60.10;35.50;;;;;;;13.73;100.00;95257.31;5122679;27;20207;-73
2022/10/12 03:43:12;;;;;;;68.23;35.80;;;;;;;13.73;100.00;95264.34;5129868;27;20238;-74
2022/10/12 03:45:39;;;;;;;53.30;33.73;;;;;;;13.72;100.00;95260.91;5127651;27;20213;-74
2022/10/12 03:48:07;;;;;;;57.30;35.43;;;;;;;13.72;100.00;95268.75;5129738;27;20657;-74
2022/10/12 03:50:34;;;;;;;55.77;35.77;;;;;;;13.73;100.00;95265.13;5123176;27;20214;-73
2022/10/12 03:53:02;;;;;;;56.10;35.93;;;;;;;13.64;100.00;95256.81;5127008;27;20207;-74
2022/10/12 03:55:31;;;;;;;55.83;35.60;;;;;;;13.77;100.00;95265.47;5128653;27;20210;-74
2022/10/12 03:57:58;;;;;;;62.87;37.80;;;;;;;13.70;100.00;95257.75;5121500;27;20712;-74
2022/10/12 04:00:25;;;;;;;57.93;37.03;;;;;;;13.69;100.00;95260.56;5130092;27;20226;-73
2022/10/12 04:02:51;;;;;;;58.67;35.93;;;;;;;13.70;100.00;95257.75;5118837;27;20227;-73
2022/10/12 04:05:18;;;;;;;57.77;36.37;;;;;;;13.75;100.00;95260.47;5123812;27;20313;-73
2022/10/12 04:07:45;;;;;;;55.50;35.97;;;;;;;13.51;100.00;95262.19;5111256;27;20631;-74
2022/10/12 04:10:12;;;;;;;59.13;36.73;;;;;;;13.21;100.00;95263.19;5116949;27;20203;-73
2022/10/12 04:12:40;;;;;;;62.53;36.67;;;;;;;12.97;100.00;95264.81;5118000;27;20200;-74
2022/10/12 04:15:08;;;;;;;69.80;38.67;;;;;;;12.87;100.00;95260.09;5120245;27;20205;-73
2022/10/12 04:17:35;;;;;;;71.77;42.53;;;;;;;12.89;100.00;95260.72;5120385;27;20206;-73
2022/10/12 04:20:02;;;;;;;68.43;42.37;;;;;;;13.01;100.00;95273.81;5121836;27;20203;-73
2022/10/12 04:22:29;;;;;;;66.43;40.53;;;;;;;13.15;100.00;95272.69;5119541;27;20314;-74
2022/10/12 04:24:56;;;;;;;66.17;40.90;;;;;;;13.22;100.00;95278.63;5122494;27;20607;-74
2022/10/12 04:27:23;;;;;;;76.10;42.67;;;;;;;13.27;100.00;95280.59;5122231;27;20199;-74
2022/10/12 04:29:51;;;;;;;69.27;42.23;;;;;;;13.30;100.00;95277.53;5122028;27;20725;-73
2022/10/12 04:32:18;;;;;;;69.30;40.60;;;;;;;13.37;100.00;95278.25;5114925;27;20211;-73
2022/10/12 04:34:45;;;;;;;56.23;36.33;;;;;;;13.43;100.00;95278.19;5123362;27;20681;-73
2022/10/12 04:37:11;;;;;;;56.93;35.57;;;;;;;13.48;100.00;95277.50;5128607;27;20207;-73
2022/10/12 04:39:38;;;;;;;54.03;32.37;;;;;;;13.50;100.00;95280.72;5124293;27;20215;-74
2022/10/12 04:42:06;;;;;;;52.10;32.60;;;;;;;13.51;100.00;95277.88;5127879;27;20195;-73
2022/10/12 04:44:32;;;;;;;53.27;32.53;;;;;;;13.57;100.00;95282.22;5124560;27;20202;-74
2022/10/12 04:47:01;;;;;;;53.83;32.13;;;;;;;13.60;100.00;95281.78;5123829;27;20203;-75
2022/10/12 04:49:27;;;;;;;50.67;31.70;;;;;;;13.62;100.00;95287.56;5118806;27;20211;-74
2022/10/12 04:51:54;;;;;;;49.63;31.37;;;;;;;13.68;100.00;95283.28;5128470;27;20199;-78
2022/10/12 04:54:21;;;;;;;49.67;30.27;;;;;;;13.65;100.00;95286.31;5124276;27;20580;-76
2022/10/12 04:56:48;;;;;;;50.60;31.17;;;;;;;13.66;100.00;95293.16;5128278;27;20208;-77
2022/10/12 04:59:15;;;;;;;48.00;30.67;;;;;;;13.70;100.00;95294.31;5124488;27;20218;-74
2022/10/12 05:01:42;;;;;;;49.17;30.80;;;;;;;13.73;100.00;95296.50;5127854;27;20199;-73
2022/10/12 05:04:10;;;;;;;58.03;35.17;;;;;;;13.77;100.00;95291.59;5123326;27;20226;-73
2022/10/12 05:06:37;;;;;;;57.17;35.53;;;;;;;13.74;100.00;95295.44;5128061;27;20565;-73
2022/10/12 05:09:04;;;;;;;62.97;37.83;;;;;;;13.63;100.00;95297.00;5127146;27;20214;-73
2022/10/12 05:11:31;;;;;;;67.87;40.43;;;;;;;13.29;100.00;95300.25;5123815;27;20207;-74
2022/10/12 05:13:58;;;;;;;63.50;40.53;;;;;;;12.79;100.00;95302.13;5118353;27;20199;-73
2022/10/12 05:16:25;;;;;;;73.13;43.10;;;;;;;12.81;100.00;95296.72;5124229;27;20210;-73
2022/10/12 05:18:52;;;;;;;75.53;43.70;;;;;;;12.88;100.00;95308.66;5126297;27;20221;-75
2022/10/12 05:21:20;;;;;;;70.63;40.40;;;;;;;13.03;100.00;95305.72;5126934;27;20216;-74
2022/10/12 05:23:50;;;;;;;76.73;38.40;;;;;;;13.16;100.00;95308.19;5125659;27;20227;-74
2022/10/12 05:26:17;;;;;;;58.43;34.70;;;;;;;13.30;100.00;95314.09;5126780;27;20209;-74
2022/10/12 05:28:44;;;;;;;60.67;34.93;;;;;;;13.39;100.00;95304.97;5126750;27;20207;-74
2022/10/12 05:31:10;;;;;;;62.80;37.13;;;;;;;13.54;100.00;95316.59;5122049;27;20211;-74
2022/10/12 05:33:37;;;;;;;68.30;38.53;;;;;;;13.57;100.00;95316.16;5123075;27;20199;-74
2022/10/12 05:36:04;;;;;;;69.50;40.90;;;;;;;13.58;100.00;95323.00;5126967;27;20218;-74
2022/10/12 05:38:33;;;;;;;68.90;41.13;;;;;;;13.62;100.00;95318.91;5127137;27;20203;-74
2022/10/12 05:40:59;;;;;;;61.53;37.30;;;;;;;13.73;100.00;95321.81;5126317;27;20211;-73
2022/10/12 05:43:26;;;;;;;57.60;33.60;;;;;;;13.77;100.00;95323.75;5123525;27;20224;-74
2022/10/12 05:45:53;;;;;;;56.00;32.60;;;;;;;13.81;100.00;95326.72;5126645;27;20214;-74
2022/10/12 05:48:20;;;;;;;50.10;28.73;;;;;;;13.84;100.00;95326.28;5127211;27;20981;-75
2022/10/12 05:50:46;;;;;;;51.03;29.87;;;;;;;13.84;100.00;95329.69;5123884;27;20231;-74
2022/10/12 05:53:13;;;;;;;48.77;29.73;;;;;;;13.88;100.00;95340.50;5125244;27;20638;-73
2022/10/12 05:55:51;;;;;;;51.57;28.57;;;;;;;13.87;100.00;95341.53;5126699;27;20203;-73
2022/10/12 05:58:18;;;;;;;49.57;30.37;;;;;;;13.85;100.00;95343.56;5120072;27;20275;-74
2022/10/12 06:00:45;;;;;;;52.57;30.03;;;;;;;13.85;100.00;95343.56;5126871;27;20264;-75
2022/10/12 06:03:12;;;;;;;51.37;30.27;;;;;;;13.92;100.00;95342.44;5126962;27;20219;-74
2022/10/12 06:05:38;;;;;;;48.67;27.83;;;;;;;13.93;100.00;95346.66;5126509;27;20210;-74
2022/10/12 06:08:07;;;;;;;52.37;27.70;;;;;;;13.89;100.00;95352.53;5126784;27;20214;-74
2022/10/12 06:10:34;;;;;;;47.37;25.87;;;;;;;13.88;100.00;95351.75;5127172;27;20199;-75
2022/10/12 06:13:02;;;;;;;44.00;26.43;;;;;;;13.92;100.00;95346.88;5126588;27;20256;-74
2022/10/12 06:15:29;;;;;;;45.63;25.83;;;;;;;13.88;100.00;95337.91;5127202;27;20206;-74
2022/10/12 06:17:56;;;;;;;48.43;26.83;;;;;;;14.00;100.00;95355.22;5127255;28;20208;-74
2022/10/12 06:20:23;;;;;;;46.03;27.37;;;;;;;14.07;100.00;95357.75;5125795;27;20275;-74
2022/10/12 06:22:50;;;;;;;40.90;27.20;;;;;;;14.11;100.00;95358.91;5122995;27;20214;-74
2022/10/12 06:25:16;;;;;;;43.80;27.80;;;;;;;14.06;100.00;95350.91;5123665;27;20218;-74
2022/10/12 06:27:45;;;;;;;44.03;27.33;;;;;;;14.09;100.00;95353.88;5127022;27;20199;-74
2022/10/12 06:30:13;;;;;;;45.57;26.70;;;;;;;14.10;100.00;95365.13;5126999;27;20199;-73
2022/10/12 06:32:40;;;;;;;49.83;28.50;;;;;;;14.13;100.00;95360.28;5125338;27;20203;-74
2022/10/12 06:35:08;;;;;;;52.13;28.40;;;;;;;14.08;100.00;95361.97;5124821;28;20203;-74
2022/10/12 06:37:35;;;;;;;49.33;29.23;;;;;;;13.98;100.00;95369.53;5122895;27;20227;-74
2022/10/12 06:40:02;;;;;;;47.57;27.37;;;;;;;14.00;100.00;95373.50;5129510;27;20199;-73
2022/10/12 06:42:29;;;;;;;52.43;26.73;;;;;;;14.09;100.00;95372.19;5131192;27;20199;-74
2022/10/12 06:44:55;;;;;;;44.57;27.63;;;;;;;14.15;100.00;95381.75;5131191;27;20227;-73
2022/10/12 06:47:24;;;;;;;43.47;27.40;;;;;;;14.17;100.00;95373.69;5124847;27;20230;-82
2022/10/12 06:49:50;;;;;;;43.20;26.27;;;;;;;14.15;100.00;95370.50;5127719;27;20207;-81
2022/10/12 06:52:17;;;;;;;40.57;26.07;;;;;;;14.16;100.00;95378.13;5129491;27;20211;-77
2022/10/12 06:54:44;;;;;;;49.37;26.23;;;;;;;14.25;100.00;95377.81;5128198;27;20202;-79
2022/10/12 06:57:11;;;;;;;46.67;26.80;;;;;;;14.35;100.00;95370.25;5131374;27;20203;-77
2022/10/12 06:59:37;;;;;;;47.57;26.23;;;;;;;14.39;100.00;95385.28;5130153;27;20235;-76
2022/10/12 07:02:04;;;;;;;43.43;25.20;;;;;;;14.46;100.00;95375.50;5129027;27;20209;-77
2022/10/12 07:04:32;;;;;;;40.93;25.80;;;;;;;14.53;100.00;95381.44;5129385;27;20223;-82
2022/10/12 07:06:59;;;;;;;45.10;25.60;;;;;;;14.64;100.00;95385.09;5120612;27;20633;-76
2022/10/12 07:09:26;;;;;;;42.70;25.77;;;;;;;14.64;100.00;95372.03;5131570;27;20191;-76
2022/10/12 07:11:53;;;;;;;41.80;25.80;;;;;;;14.64;100.00;95388.53;5129965;27;20204;-73
2022/10/12 07:14:20;;;;;;;46.90;25.43;;;;;;;14.63;100.00;95391.38;5126952;27;20214;-72
2022/10/12 07:16:47;;;;;;;44.13;25.07;;;;;;;14.66;100.00;95380.47;5128029;27;20585;-72
2022/10/12 07:19:13;;;;;;;45.83;25.03;;;;;;;14.63;100.00;95370.44;5129926;27;20200;-72
2022/10/12 07:21:42;;;;;;;43.73;25.30;;;;;;;14.67;100.00;95388.06;5128329;27;20211;-73
2022/10/12 07:24:12;;;;;;;45.37;26.00;;;;;;;14.70;100.00;95385.00;5126506;27;20234;-75
2022/10/12 07:26:39;;;;;;;54.80;29.87;;;;;;;14.74;100.00;95383.53;5125024;27;20535;-78
2022/10/12 07:29:06;;;;;;;49.27;28.40;;;;;;;14.31;100.00;95385.56;5121758;27;20199;-79
2022/10/12 07:31:33;;;;;;;47.77;29.00;;;;;;;14.06;100.00;95383.06;5122282;27;20207;-80
2022/10/12 07:33:59;;;;;;;52.30;29.90;;;;;;;13.64;100.00;95376.19;5130600;27;20221;-87
2022/10/12 07:36:26;;;;;;;49.93;29.83;;;;;;;13.83;100.00;95384.78;5128204;27;20699;-71
2022/10/12 07:38:55;;;;;;;58.47;31.13;;;;;;;13.99;100.00;95385.00;5123380;27;20203;-75
2022/10/12 07:41:21;;;;;;;51.73;32.10;;;;;;;14.07;100.00;95389.09;5130358;27;20214;-75
2022/10/12 07:43:56;;;;;;;46.97;31.07;;;;;;;13.95;100.00;95385.63;5126364;27;20223;-76
2022/10/12 07:46:24;;;;;;;50.60;29.03;;;;;;;13.83;100.00;95390.00;5123689;27;20282;-77
2022/10/12 07:48:50;;;;;;;53.17;29.97;;;;;;;13.64;100.00;95395.25;5125244;27;20355;-76
2022/10/12 07:51:18;;;;;;;49.23;29.60;;;;;;;13.60;100.00;95391.47;5123827;27;20268;-75
2022/10/12 07:53:45;;;;;;;48.17;30.17;;;;;;;13.52;100.00;95389.16;5126874;27;20231;-75
2022/10/12 07:56:14;;;;;;;51.43;29.63;;;;;;;13.64;100.00;95392.66;5127703;27;20209;-75
2022/10/12 07:58:42;;;;;;;49.10;29.87;;;;;;;13.59;100.00;95392.47;5127001;27;20867;-75
2022/10/12 08:01:11;;;;;;;50.93;29.33;;;;;;;13.54;100.00;95387.13;5131001;27;20203;-74
2022/10/12 08:03:38;;;;;;;49.63;30.10;;;;;;;13.68;100.00;95385.16;5126467;27;20219;-74
2022/10/12 08:06:11;;;;;;;54.10;30.97;;;;;;;13.84;100.00;95387.19;5129665;27;20207;-73
2022/10/12 08:08:38;;;;;;;44.23;27.90;;;;;;;14.05;100.00;95380.69;5116727;27;20353;-77
2022/10/12 08:11:06;;;;;;;52.47;28.07;;;;;;;14.22;100.00;95384.28;5125421;27;20669;-75
2022/10/12 08:13:35;;;;;;;50.37;26.53;;;;;;;14.37;100.00;95383.91;5129263;27;20199;-75
2022/10/12 08:16:04;;;;;;;45.07;25.73;;;;;;;14.48;100.00;95394.41;5118928;27;20200;-75
2022/10/12 08:18:37;;;;;;;47.40;25.10;;;;;;;14.63;100.00;95389.53;5126087;27;20611;-75
2022/10/12 08:21:04;;;;;;;42.00;24.33;;;;;;;14.73;100.00;95386.38;5127311;27;20628;-76
2022/10/12 08:23:31;;;;;;;47.13;26.27;;;;;;;14.87;100.00;95390.38;5125821;27;20229;-75
2022/10/12 08:25:58;;;;;;;41.30;23.80;;;;;;;15.03;100.00;95391.53;5127889;27;20677;-75
2022/10/12 08:28:25;;;;;;;37.73;23.83;;;;;;;15.08;100.00;95391.66;5127033;27;20208;-74
2022/10/12 08:30:53;;;;;;;40.10;23.27;;;;;;;15.20;100.00;95395.06;5125614;27;20595;-74
2022/10/12 08:33:20;;;;;;;41.33;22.43;;;;;;;15.24;100.00;95393.56;5129011;27;20208;-74
2022/10/12 08:35:48;;;;;;;41.40;24.60;;;;;;;15.33;100.00;95386.97;5124572;27;20212;-75
2022/10/12 08:38:16;;;;;;;44.63;22.87;;;;;;;15.26;100.00;95389.72;5128391;27;20214;-74
2022/10/12 08:40:49;;;;;;;39.83;22.53;;;;;;;15.39;100.00;95386.06;5128418;27;20207;-75
2022/10/12 08:43:27;;;;;;;46.20;22.63;;;;;;;15.52;100.00;95390.31;5125429;27;20603;-75
2022/10/12 08:46:04;;;;;;;42.13;22.63;;;;;;;15.52;100.00;95391.09;5122176;27;20603;-75
2022/10/12 08:48:41;;;;;;;38.97;22.57;;;;;;;15.20;100.00;95385.41;5124459;27;20238;-75
2022/10/12 08:51:13;;;;;;;36.43;22.77;;;;;;;14.82;100.00;95379.78;5122801;27;20548;-75
2022/10/12 08:53:52;;;;;;;42.43;23.37;;;;;;;14.92;100.00;95385.25;5122710;27;20664;-76
2022/10/12 08:56:20;;;;;;;34.80;22.20;;;;;;;15.02;100.00;95385.50;5129119;27;20264;-77
2022/10/12 08:58:49;;;;;;;30.63;19.73;;;;;;;15.20;100.00;95385.41;5122816;27;20211;-78
2022/10/12 09:01:27;;;;;;;33.33;19.43;;;;;;;15.39;100.00;95388.69;5126780;27;20206;-77
2022/10/12 09:04:22;;;;;;;33.83;18.30;;;;;;;15.51;100.00;95384.25;5124140;27;20238;-78
2022/10/12 09:06:54;;;;;;;26.47;17.97;;;;;;;15.64;100.00;95384.00;5106759;27;20199;-78
2022/10/12 09:09:36;;;;;;;32.23;18.30;;;;;;;15.73;100.00;95384.44;5124664;27;20201;-78
2022/10/12 09:12:18;;;;;;;37.87;19.00;;;;;;;15.82;100.00;95383.84;5125029;27;20290;-77
2022/10/12 09:14:47;;;;;;;30.67;18.27;;;;;;;15.99;100.00;95394.41;5124720;27;20211;-79
2022/10/12 09:17:25;;;;;;;22.90;15.97;;;;;;;16.14;100.00;95383.41;5121325;27;20211;-78
2022/10/12 09:20:01;;;;;;;29.13;16.77;;;;;;;16.26;100.00;95386.78;5124280;27;20286;-78
2022/10/12 09:22:29;;;;;;;27.63;16.13;;;;;;;16.27;100.00;95385.75;5122325;27;20195;-77
2022/10/12 09:24:57;;;;;;;27.43;16.20;;;;;;;16.32;100.00;95389.28;5122062;27;20220;-78
2022/10/12 09:27:29;;;;;;;26.57;16.43;;;;;;;16.37;100.00;95385.94;5125162;27;20200;-77
2022/10/12 09:30:00;;;;;;;26.07;15.77;;;;;;;16.42;100.00;95388.66;5126383;27;20196;-78
2022/10/12 09:32:53;;;;;;;27.40;16.77;;;;;;;16.13;100.00;95385.22;5127147;27;20281;-76
2022/10/12 09:35:20;;;;;;;25.63;16.33;;;;;;;15.80;100.00;95395.59;5115506;27;20214;-78
2022/10/12 09:37:51;;;;;;;25.57;18.07;;;;;;;15.62;100.00;95398.34;5124449;27;20220;-77
2022/10/12 09:40:27;;;;;;;29.80;17.30;;;;;;;15.74;100.00;95386.84;5119426;27;20314;-78
2022/10/12 09:42:56;;;;;;;24.87;16.80;;;;;;;15.62;100.00;95380.81;5119226;27;20199;-79
2022/10/12 09:45:31;;;;;;;33.40;17.70;;;;;;;15.43;100.00;95392.44;5124513;27;20219;-79
2022/10/12 09:48:17;;;;;;;30.17;18.77;;;;;;;15.39;100.00;95386.06;5120193;27;20242;-79
2022/10/12 09:50:48;;;;;;;28.77;19.00;;;;;;;15.59;100.00;95389.13;5119275;27;20200;-80
2022/10/12 09:53:25;;;;;;;29.63;17.70;;;;;;;15.83;100.00;95390.69;5116681;27;20230;-78
2022/10/12 09:56:01;;;;;;;32.57;17.40;;;;;;;16.06;100.00;95392.44;5128361;27;20290;-77
2022/10/12 09:58:29;;;;;;;31.33;16.97;;;;;;;16.30;100.00;95393.97;5125840;27;20265;-79
2022/10/12 10:01:22;;;;;;;26.07;16.43;;;;;;;16.40;100.00;95378.38;5127123;27;20212;-79
2022/10/12 10:04:06;;;;;;;30.67;17.70;;;;;;;16.57;100.00;95375.00;5117215;27;20256;-79
2022/10/12 10:06:33;;;;;;;24.23;17.00;;;;;;;16.64;100.00;95380.91;5121336;27;20593;-79
2022/10/12 10:09:00;;;;;;;27.53;17.27;;;;;;;16.78;100.00;95380.38;5125272;27;20567;-82
2022/10/12 10:11:30;;;;;;;26.67;16.50;;;;;;;16.88;100.00;95377.91;5121513;27;20215;-77
2022/10/12 10:13:59;;;;;;;27.87;16.60;;;;;;;16.88;100.00;95371.88;5126883;27;20203;-77
2022/10/12 10:16:27;;;;;;;29.53;17.07;;;;;;;16.83;100.00;95374.41;5120962;28;20199;-78
2022/10/12 10:19:01;;;;;;;26.17;18.10;;;;;;;16.61;100.00;95353.31;5126651;28;20692;-77
2022/10/12 10:21:40;;;;;;;26.27;16.27;;;;;;;16.83;100.00;95367.31;5124348;28;20264;-83
2022/10/12 10:24:24;;;;;;;25.33;16.50;;;;;;;16.94;100.00;95365.66;5120099;28;20204;-86
2022/10/12 10:26:55;;;;;;;21.03;14.87;;;;;;;16.96;100.00;95366.22;5119401;28;20603;-84
2022/10/12 10:29:35;;;;;;;25.50;15.67;;;;;;;16.93;100.00;95367.50;5115564;28;20224;-85
2022/10/12 10:32:22;;;;;;;22.43;14.80;;;;;;;17.03;100.00;95361.56;5115423;28;20203;-85
2022/10/12 10:35:00;;;;;;;23.70;14.47;;;;;;;17.07;100.00;95352.19;5122298;28;20238;-88
2022/10/12 10:37:27;;;;;;;24.03;15.40;;;;;;;17.11;100.00;95348.06;5126314;28;20195;-87
2022/10/12 10:39:57;;;;;;;27.33;15.37;;;;;;;16.91;100.00;95359.03;5119461;28;20211;-87
2022/10/12 10:42:28;;;;;;;21.40;15.60;;;;;;;16.53;100.00;95340.56;5121813;28;20200;-87
2022/10/12 10:45:01;;;;;;;28.20;16.97;;;;;;;16.30;100.00;95344.13;5120586;28;20299;-85
2022/10/12 10:47:29;;;;;;;26.97;17.03;;;;;;;16.30;100.00;95338.06;5116778;28;20238;-86
2022/10/12 10:50:00;;;;;;;30.67;17.03;;;;;;;16.42;100.00;95344.06;5116949;28;20202;-87
2022/10/12 10:52:29;;;;;;;25.17;16.53;;;;;;;16.59;100.00;95344.09;5122973;28;20211;-84
2022/10/12 10:55:18;;;;;;;35.20;16.23;;;;;;;16.82;100.00;95336.88;5123381;28;20192;-86
2022/10/12 10:57:54;;;;;;;25.93;16.03;;;;;;;16.97;100.00;95334.44;5120040;28;20204;-84
2022/10/12 11:00:22;;;;;;;23.37;15.20;;;;;;;17.11;100.00;95340.19;5120289;28;20204;-83
2022/10/12 11:02:53;;;;;;;21.07;14.50;;;;;;;17.21;99.72;95339.50;5124590;28;20203;-84
2022/10/12 11:05:27;;;;;;;22.17;14.67;;;;;;;17.11;100.00;95337.56;5118990;27;20216;-84
2022/10/12 11:07:55;;;;;;;22.43;14.80;;;;;;;17.21;100.00;95336.88;5118660;28;20200;-83
2022/10/12 11:10:28;;;;;;;24.53;14.90;;;;;;;17.24;100.00;95333.78;5125118;28;20250;-79
2022/10/12 11:13:00;;;;;;;21.67;14.50;;;;;;;17.32;99.62;95333.34;5119099;28;20228;-81
2022/10/12 11:15:33;;;;;;;21.93;14.20;;;;;;;17.10;99.92;95324.66;5118966;28;20203;-82
2022/10/12 11:18:06;;;;;;;23.20;14.60;;;;;;;16.72;100.00;95328.00;5117061;28;20223;-80
2022/10/12 11:20:55;;;;;;;21.33;13.80;;;;;;;16.56;100.00;95321.75;5124862;28;20195;-83
2022/10/12 11:23:31;;;;;;;22.33;13.47;;;;;;;16.71;100.00;95321.97;5119847;27;20204;-80